createdAt,value
2022-09-16T04:01:06.468Z,0.93
2022-09-16T04:03:33.573Z,1.98
2022-09-16T04:06:00.375Z,0.77
2022-09-16T04:10:59.724Z,0.40
2022-09-16T04:13:29.392Z,1.05
2022-09-16T04:15:56.252Z,0.73
2022-09-16T04:18:23.097Z,1.17
2022-09-16T04:20:49.812Z,0.75
2022-09-16T04:23:16.515Z,1.15
2022-09-16T04:25:43.236Z,1.30
2022-09-16T04:28:10.107Z,0.60
2022-09-16T04:30:37.117Z,1.15
2022-09-16T04:33:03.972Z,0.93
2022-09-16T04:35:30.938Z,0.50
2022-09-16T04:37:58.688Z,1.45
2022-09-16T04:40:25.514Z,0.73
2022-09-16T04:42:52.650Z,1.23
2022-09-16T04:45:20.291Z,1.13
2022-09-16T04:47:47.056Z,0.75
2022-09-16T04:50:13.936Z,0.73
2022-09-16T04:52:40.692Z,0.75
2022-09-16T04:55:07.771Z,0.90
2022-09-16T04:57:34.552Z,1.08
2022-09-16T05:00:01.506Z,1.42
2022-09-16T05:02:29.702Z,1.10
2022-09-16T05:04:56.660Z,1.17
2022-09-16T05:07:23.467Z,0.65
2022-09-16T05:09:50.278Z,1.23
2022-09-16T05:12:17.015Z,1.30
2022-09-16T05:14:43.813Z,0.70
2022-09-16T05:17:10.633Z,1.02
2022-09-16T05:19:37.336Z,0.77
2022-09-16T05:22:07.340Z,0.70
2022-09-16T05:24:36.480Z,0.88
2022-09-16T05:27:03.600Z,1.02
2022-09-16T05:29:30.354Z,1.15
2022-09-16T05:31:58.015Z,1.00
2022-09-16T05:34:28.640Z,1.02
2022-09-16T05:36:56.308Z,1.02
2022-09-16T05:39:25.010Z,1.55
2022-09-16T05:41:59.317Z,1.38
2022-09-16T05:44:27.357Z,1.23
2022-09-16T05:46:54.468Z,1.00
2022-09-16T05:49:21.493Z,2.15
2022-09-16T05:51:49.274Z,1.20
2022-09-16T05:54:18.676Z,1.40
2022-09-16T05:56:46.474Z,1.10
2022-09-16T05:59:14.185Z,1.23
2022-09-16T06:01:41.736Z,0.93
2022-09-16T06:04:11.917Z,1.27
2022-09-16T06:06:40.729Z,1.48
2022-09-16T06:09:15.813Z,1.02
2022-09-16T06:11:45.564Z,1.00
2022-09-16T06:14:13.702Z,0.90
2022-09-16T06:16:40.893Z,2.15
2022-09-16T06:19:11.109Z,1.17
2022-09-16T06:21:39.149Z,0.85
2022-09-16T06:24:09.597Z,0.82
2022-09-16T06:26:39.136Z,1.63
2022-09-16T06:29:06.637Z,1.33
2022-09-16T06:31:35.086Z,1.10
2022-09-16T06:34:02.497Z,1.73
2022-09-16T06:36:33.083Z,0.80
2022-09-16T06:38:59.887Z,0.90
2022-09-16T06:41:26.829Z,1.13
2022-09-16T06:43:53.892Z,2.05
2022-09-16T06:46:26.264Z,1.83
2022-09-16T06:48:58.498Z,1.20
2022-09-16T06:51:28.876Z,2.28
2022-09-16T06:54:00.463Z,1.33
2022-09-16T06:56:27.431Z,0.80
2022-09-16T06:58:55.896Z,1.52
2022-09-16T07:01:28.511Z,1.58
2022-09-16T07:06:44.925Z,1.20
2022-09-16T07:09:11.898Z,1.20
2022-09-16T07:11:40.731Z,1.17
2022-09-16T07:14:08.271Z,0.82
2022-09-16T07:16:35.259Z,1.70
2022-09-16T07:19:02.288Z,1.55
2022-09-16T07:21:30.661Z,1.10
2022-09-16T07:24:02.613Z,1.15
2022-09-16T07:26:32.095Z,1.77
2022-09-16T07:29:00.726Z,1.65
2022-09-16T07:31:30.395Z,2.15
2022-09-16T07:34:03.460Z,1.27
2022-09-16T07:36:35.246Z,1.00
2022-09-16T07:39:03.194Z,1.45
2022-09-16T07:41:33.541Z,1.60
2022-09-16T07:44:01.267Z,0.90
2022-09-16T07:46:32.205Z,1.08
2022-09-16T07:49:00.784Z,1.23
2022-09-16T07:51:29.308Z,1.25
2022-09-16T07:53:59.438Z,0.85
2022-09-16T07:56:29.110Z,1.00
2022-09-16T07:58:57.164Z,1.25
2022-09-16T08:01:25.000Z,1.38
2022-09-16T08:03:52.243Z,0.93
2022-09-16T08:06:25.545Z,0.52
2022-09-16T08:08:54.604Z,1.20
2022-09-16T08:11:22.016Z,1.45
2022-09-16T08:13:49.178Z,1.17
2022-09-16T08:16:20.648Z,1.00
2022-09-16T08:18:49.564Z,0.70
2022-09-16T08:21:19.674Z,0.63
2022-09-16T08:23:46.871Z,0.93
2022-09-16T08:26:15.102Z,0.60
2022-09-16T08:29:07.328Z,0.68
2022-09-16T08:31:31.158Z,0.50
2022-09-16T08:33:58.050Z,0.85
2022-09-16T08:36:26.134Z,0.80
2022-09-16T08:38:55.625Z,0.60
2022-09-16T08:41:22.365Z,0.40
2022-09-16T08:44:09.878Z,0.85
2022-09-16T08:47:00.720Z,1.38
2022-09-16T08:49:44.142Z,0.50
2022-09-16T08:52:19.093Z,1.50
2022-09-16T08:57:27.531Z,0.50
2022-09-16T09:00:07.785Z,0.50
2022-09-16T09:02:55.951Z,0.90
2022-09-16T09:05:28.588Z,0.40
2022-09-16T09:08:10.732Z,0.57
2022-09-16T09:10:52.252Z,0.32
2022-09-16T09:13:36.943Z,0.70
2022-09-16T09:16:37.138Z,0.40
2022-09-16T09:19:28.994Z,1.35
2022-09-16T09:22:23.084Z,0.63
2022-09-16T09:25:08.591Z,0.38
2022-09-16T09:27:56.201Z,0.80
2022-09-16T09:30:26.077Z,0.55
2022-09-16T09:33:34.227Z,0.40
2022-09-16T09:36:27.748Z,0.68
2022-09-16T09:39:19.120Z,0.43
2022-09-16T09:42:00.827Z,0.65
2022-09-16T09:45:06.355Z,0.50
2022-09-16T09:47:47.419Z,0.85
2022-09-16T09:50:29.767Z,0.70
2022-09-16T09:53:06.073Z,0.40
2022-09-16T09:55:34.278Z,0.60
2022-09-16T09:58:13.220Z,0.70
2022-09-16T10:00:40.070Z,0.98
2022-09-16T10:03:11.726Z,0.55
2022-09-16T10:05:39.356Z,1.47
2022-09-16T10:08:20.946Z,0.77
2022-09-16T10:10:52.702Z,0.60
2022-09-16T10:13:23.825Z,0.90
2022-09-16T10:15:55.811Z,1.05
2022-09-16T10:18:27.059Z,0.75
2022-09-16T10:21:11.041Z,0.68
2022-09-16T10:23:39.442Z,0.25
2022-09-16T10:26:08.491Z,0.50
2022-09-16T10:28:35.656Z,0.73
2022-09-16T10:31:03.190Z,0.70
2022-09-16T10:33:36.782Z,0.60
2022-09-16T10:36:08.549Z,0.80
2022-09-16T10:38:42.676Z,0.70
2022-09-16T10:41:16.385Z,0.60
2022-09-16T10:43:59.958Z,0.35
2022-09-16T10:46:27.919Z,0.40
2022-09-16T10:49:00.593Z,0.63
2022-09-16T10:54:01.087Z,0.35
2022-09-16T10:56:48.830Z,0.28
2022-09-16T10:59:15.779Z,0.55
2022-09-16T11:01:57.684Z,0.40
2022-09-16T11:05:00.178Z,0.40
2022-09-16T11:07:42.126Z,0.63
2022-09-16T11:10:46.610Z,0.20
2022-09-16T11:13:30.954Z,0.50
2022-09-16T11:16:18.735Z,0.20
2022-09-16T11:18:57.952Z,0.30
2022-09-16T11:21:45.369Z,0.40
2022-09-16T11:24:21.917Z,0.22
2022-09-16T11:26:55.425Z,0.25
2022-09-16T11:29:44.186Z,0.20
2022-09-16T11:32:26.910Z,0.50
2022-09-16T11:37:35.185Z,0.30
2022-09-16T11:40:34.650Z,0.20
2022-09-16T11:43:28.418Z,0.30
2022-09-16T11:46:07.654Z,0.52
2022-09-16T11:48:43.616Z,0.43
2022-09-16T11:51:41.757Z,0.55
2022-09-16T11:54:20.516Z,0.40
2022-09-16T11:56:52.265Z,0.25
2022-09-16T11:59:26.849Z,0.30
2022-09-16T12:02:27.359Z,0.30
2022-09-16T12:05:06.415Z,0.22
2022-09-16T12:07:48.621Z,0.45
2022-09-16T12:10:26.569Z,0.50
2022-09-16T12:13:15.575Z,0.52
2022-09-16T12:15:54.878Z,0.30
2022-09-16T12:18:45.022Z,0.25
2022-09-16T12:21:17.909Z,0.40
2022-09-16T12:23:49.420Z,0.20
2022-09-16T12:26:27.493Z,0.50
2022-09-16T12:29:03.142Z,0.20
2022-09-16T12:31:53.955Z,0.60
2022-09-16T12:34:29.598Z,0.22
2022-09-16T12:37:06.589Z,0.40
2022-09-16T12:39:34.099Z,0.50
2022-09-16T12:42:30.700Z,0.20
2022-09-16T12:45:15.801Z,0.68
2022-09-16T12:48:14.594Z,0.40
2022-09-16T12:51:15.285Z,0.20
2022-09-16T12:54:17.801Z,0.30
2022-09-16T12:57:12.306Z,0.35
2022-09-16T13:00:18.057Z,0.28
2022-09-16T13:02:51.328Z,0.25
2022-09-16T13:05:38.715Z,0.45
2022-09-16T13:08:20.808Z,0.35
2022-09-16T13:11:38.930Z,0.10
2022-09-16T13:13:54.840Z,0.17
2022-09-16T13:16:37.420Z,0.13
2022-09-16T13:19:28.796Z,0.30
2022-09-16T13:21:59.045Z,0.35
2022-09-16T13:24:39.531Z,0.22
2022-09-16T13:27:34.645Z,0.50
2022-09-16T13:30:13.147Z,0.10
2022-09-16T13:32:53.165Z,0.30
2022-09-16T13:35:22.356Z,0.40
2022-09-16T13:37:56.940Z,0.20
2022-09-16T13:40:27.275Z,0.20
2022-09-16T13:43:09.269Z,0.68
2022-09-16T13:45:46.635Z,0.27
2022-09-16T13:48:19.537Z,0.32
2022-09-16T13:50:57.403Z,0.22
2022-09-16T13:53:26.637Z,0.45
2022-09-16T13:56:01.875Z,0.50
2022-09-16T13:58:34.918Z,0.52
2022-09-16T14:01:13.020Z,0.20
2022-09-16T14:03:55.202Z,0.30
2022-09-16T14:06:25.017Z,0.38
2022-09-16T14:09:17.549Z,0.35
2022-09-16T14:12:03.907Z,0.43
2022-09-16T14:14:50.367Z,0.10
2022-09-16T14:17:28.595Z,0.10
2022-09-16T14:20:02.227Z,0.55
2022-09-16T14:22:30.218Z,0.20
2022-09-16T14:25:06.158Z,0.10
2022-09-16T14:27:39.658Z,0.30
2022-09-16T14:30:15.803Z,0.40
2022-09-16T14:32:42.728Z,0.28
2022-09-16T14:35:15.964Z,0.32
2022-09-16T14:37:46.800Z,0.20
2022-09-16T14:40:17.952Z,0.20
2022-09-16T14:42:54.157Z,0.10
2022-09-16T14:45:22.408Z,0.50
2022-09-16T14:47:54.478Z,0.47
2022-09-16T14:50:23.609Z,0.20
2022-09-16T14:52:59.233Z,0.22
2022-09-16T14:55:30.021Z,0.40
2022-09-16T14:57:58.515Z,0.20
2022-09-16T15:00:31.557Z,0.20
2022-09-16T15:03:04.316Z,0.70
2022-09-16T15:05:39.951Z,0.50
2022-09-16T15:08:18.838Z,0.20
2022-09-16T15:10:55.242Z,0.38
2022-09-16T15:13:27.704Z,0.32
2022-09-16T15:18:33.104Z,0.32
2022-09-16T15:21:09.103Z,0.20
2022-09-16T15:23:38.444Z,0.45
2022-09-16T15:26:17.121Z,0.50
2022-09-16T15:29:01.562Z,0.40
2022-09-16T15:31:34.965Z,0.52
2022-09-16T15:34:04.857Z,0.30
2022-09-16T15:36:41.242Z,0.57
2022-09-16T15:39:40.673Z,0.30
2022-09-16T15:42:14.140Z,0.40
2022-09-16T15:44:55.554Z,0.40
2022-09-16T15:47:25.547Z,0.30
2022-09-16T15:50:06.616Z,0.30
2022-09-16T15:52:43.057Z,0.35
2022-09-16T15:55:10.952Z,0.25
2022-09-16T15:57:48.955Z,0.75
2022-09-16T16:00:16.479Z,0.40
2022-09-16T16:02:54.063Z,0.57
2022-09-16T16:05:24.137Z,0.57
2022-09-16T16:07:57.297Z,0.40
2022-09-16T16:10:31.288Z,0.30
2022-09-16T16:13:01.193Z,0.60
2022-09-16T16:15:36.078Z,0.40
2022-09-16T16:18:08.837Z,0.35
2022-09-16T16:20:37.485Z,0.30
2022-09-16T16:23:04.271Z,0.45
2022-09-16T16:25:31.074Z,0.22
2022-09-16T16:27:57.888Z,0.60
2022-09-16T16:30:24.675Z,0.35
2022-09-16T16:32:51.421Z,0.73
2022-09-16T16:35:18.315Z,0.17
2022-09-16T16:37:46.822Z,0.40
2022-09-16T16:40:17.587Z,0.43
2022-09-16T16:42:44.978Z,0.38
2022-09-16T16:45:13.547Z,0.60
2022-09-16T16:47:40.939Z,0.52
2022-09-16T16:50:08.742Z,0.57
2022-09-16T16:52:35.487Z,0.22
2022-09-16T16:55:02.210Z,0.57
2022-09-16T16:57:29.046Z,0.43
2022-09-16T16:59:56.472Z,0.32
2022-09-16T17:02:24.037Z,0.40
2022-09-16T17:04:51.403Z,0.20
2022-09-16T17:07:27.003Z,0.80
2022-09-16T17:09:57.136Z,0.63
2022-09-16T17:12:24.040Z,1.92
2022-09-16T17:14:53.267Z,1.77
2022-09-16T17:17:20.212Z,1.92
2022-09-16T17:19:46.977Z,2.78
2022-09-16T17:22:13.882Z,3.50
2022-09-16T17:24:40.697Z,5.57
2022-09-16T17:27:07.426Z,6.65
2022-09-16T17:29:34.518Z,5.43
2022-09-16T17:32:10.549Z,5.80
2022-09-16T17:34:37.590Z,3.83
2022-09-16T17:37:04.382Z,6.68
2022-09-16T17:39:31.126Z,2.90
2022-09-16T17:42:00.086Z,3.10
2022-09-16T17:44:27.170Z,2.47
2022-09-16T17:46:54.127Z,1.17
2022-09-16T17:49:23.741Z,0.85
2022-09-16T17:51:51.986Z,0.60
2022-09-16T17:54:19.352Z,0.85
2022-09-16T17:56:46.918Z,0.85
2022-09-16T17:59:18.264Z,0.63
2022-09-16T18:01:45.400Z,1.25
2022-09-16T18:04:12.670Z,0.82
2022-09-16T18:06:44.980Z,0.77
2022-09-16T18:09:16.601Z,0.43
2022-09-16T18:11:44.094Z,1.27
2022-09-16T18:14:13.165Z,2.30
2022-09-16T18:16:40.909Z,0.90
2022-09-16T18:19:07.961Z,0.75
2022-09-16T18:21:35.045Z,0.63
2022-09-16T18:24:03.138Z,1.02
2022-09-16T18:26:31.433Z,1.05
2022-09-16T18:29:16.183Z,0.90
2022-09-16T18:31:45.529Z,1.38
2022-09-16T18:34:13.216Z,1.95
2022-09-16T18:36:40.489Z,1.35
2022-09-16T18:39:11.174Z,1.80
2022-09-16T18:41:40.533Z,1.92
2022-09-16T18:44:23.693Z,2.22
2022-09-16T18:46:51.367Z,1.00
2022-09-16T18:49:21.409Z,1.15
2022-09-16T18:51:52.147Z,0.82
2022-09-16T18:54:25.110Z,0.90
2022-09-16T18:56:52.694Z,1.15
2022-09-16T18:59:23.050Z,0.70
2022-09-16T19:01:52.861Z,0.75
2022-09-16T19:04:22.747Z,0.60
2022-09-16T19:06:52.373Z,1.13
2022-09-16T19:11:50.656Z,0.65
2022-09-16T19:14:17.574Z,2.50
2022-09-16T19:16:45.850Z,1.70
2022-09-16T19:19:14.563Z,1.00
2022-09-16T19:21:42.547Z,1.30
2022-09-16T19:24:15.457Z,1.33
2022-09-16T19:26:52.778Z,1.20
2022-09-16T19:29:20.771Z,1.38
2022-09-16T19:31:50.169Z,1.30
2022-09-16T19:34:19.767Z,1.00
2022-09-16T19:36:47.268Z,1.63
2022-09-16T19:39:21.913Z,0.88
2022-09-16T19:41:49.210Z,1.45
2022-09-16T19:44:17.897Z,0.95
2022-09-16T19:46:47.275Z,0.50
2022-09-16T19:49:17.383Z,0.70
2022-09-16T19:52:19.992Z,1.27
2022-09-16T19:54:56.708Z,1.48
2022-09-16T19:57:23.517Z,0.95
2022-09-16T19:59:50.261Z,1.00
2022-09-16T20:02:17.306Z,1.73
2022-09-16T20:04:44.034Z,0.88
2022-09-16T20:07:17.098Z,0.80
2022-09-16T20:09:45.881Z,0.68
2022-09-16T20:12:12.992Z,0.88
2022-09-16T20:14:39.802Z,1.00
2022-09-16T20:17:06.535Z,1.38
2022-09-16T20:19:33.563Z,1.42
2022-09-16T20:22:01.600Z,1.23
2022-09-16T20:24:28.421Z,0.52
2022-09-16T20:26:57.307Z,0.80
2022-09-16T20:29:24.838Z,1.00
2022-09-16T20:31:53.623Z,0.60
2022-09-16T20:34:22.954Z,0.80
2022-09-16T20:36:49.789Z,0.50
2022-09-16T20:39:16.645Z,0.80
2022-09-16T20:41:49.717Z,0.82
2022-09-16T20:44:16.833Z,0.65
2022-09-16T20:46:44.067Z,0.95
2022-09-16T20:49:15.196Z,1.27
2022-09-16T20:51:42.479Z,0.90
2022-09-16T20:54:14.394Z,1.17
2022-09-16T20:56:45.495Z,0.65
2022-09-16T20:59:14.948Z,0.80
2022-09-16T21:01:42.127Z,1.10
2022-09-16T21:04:16.201Z,0.98
2022-09-16T21:06:43.409Z,0.90
2022-09-16T21:09:12.513Z,1.42
2022-09-16T21:11:46.200Z,1.02
2022-09-16T21:14:16.110Z,1.00
2022-09-16T21:16:44.154Z,0.77
2022-09-16T21:19:12.837Z,0.70
2022-09-16T21:21:43.105Z,1.17
2022-09-16T21:24:10.035Z,0.60
2022-09-16T21:26:38.937Z,0.50
2022-09-16T21:29:09.892Z,1.02
2022-09-16T21:31:38.305Z,1.23
2022-09-16T21:34:06.796Z,0.55
2022-09-16T21:36:35.404Z,0.77
2022-09-16T21:39:02.272Z,0.82
2022-09-16T21:41:29.165Z,1.35
2022-09-16T21:43:57.413Z,0.57
2022-09-16T21:46:28.658Z,0.40
2022-09-16T21:48:58.414Z,0.85
2022-09-16T21:51:25.371Z,0.80
2022-09-16T21:53:52.235Z,0.60
2022-09-16T21:56:21.203Z,0.75
2022-09-16T21:58:49.607Z,0.60
2022-09-16T22:01:21.406Z,0.70
2022-09-16T22:03:59.408Z,0.70
2022-09-16T22:06:27.214Z,0.70
2022-09-16T22:08:55.747Z,0.93
2022-09-16T22:11:24.982Z,0.80
2022-09-16T22:13:53.499Z,0.50
2022-09-16T22:16:28.816Z,0.85
2022-09-16T22:19:07.545Z,0.50
2022-09-16T22:21:36.520Z,1.42
2022-09-16T22:24:04.475Z,0.63
2022-09-16T22:26:31.348Z,0.75
2022-09-16T22:28:58.363Z,0.95
2022-09-16T22:31:28.064Z,0.95
2022-09-16T22:33:56.723Z,0.65
2022-09-16T22:36:26.254Z,0.60
2022-09-16T22:38:58.481Z,0.65
2022-09-16T22:41:25.700Z,0.77
2022-09-16T22:43:53.787Z,0.40
2022-09-16T22:46:22.694Z,0.73
2022-09-16T22:48:50.430Z,0.93
2022-09-16T22:51:18.992Z,0.70
2022-09-16T22:53:46.459Z,1.25
2022-09-16T22:56:18.815Z,0.63
2022-09-16T22:58:46.275Z,0.88
2022-09-16T23:01:15.763Z,0.75
2022-09-16T23:03:43.957Z,0.98
2022-09-16T23:06:13.408Z,0.50
2022-09-16T23:08:42.780Z,0.60
2022-09-16T23:11:14.651Z,0.98
2022-09-16T23:13:42.751Z,0.53
2022-09-16T23:16:15.837Z,0.40
2022-09-16T23:18:43.722Z,1.02
2022-09-16T23:21:13.000Z,1.00
2022-09-16T23:23:42.839Z,0.57
2022-09-16T23:26:12.648Z,1.33
2022-09-16T23:28:39.504Z,0.57
2022-09-16T23:31:08.358Z,0.50
2022-09-16T23:33:35.586Z,0.70
2022-09-16T23:36:04.496Z,1.15
2022-09-16T23:38:31.469Z,0.95
2022-09-16T23:41:05.074Z,0.60
2022-09-16T23:43:31.930Z,0.90
2022-09-16T23:46:01.914Z,0.40
2022-09-16T23:48:30.105Z,0.70
2022-09-16T23:50:58.128Z,0.80
2022-09-16T23:53:25.381Z,0.40
2022-09-16T23:55:52.479Z,0.73
2022-09-16T23:58:19.662Z,0.30
